sensor_id;sensor_type;location;lat;lon;timestamp;pressure;altitude;pressure_sealevel;temperature;humidity
50672;BME280;46021;55.882;37.654;2023-04-20T00:01:08;100255.72;;;6.27;37.63
50672;BME280;46021;55.882;37.654;2023-04-20T00:03:37;100249.72;;;6.23;38.04
50672;BME280;46021;55.882;37.654;2023-04-20T00:06:04;100251.44;;;6.18;38.58
50672;BME280;46021;55.882;37.654;2023-04-20T00:08:32;100252.34;;;6.18;38.19
50672;BME280;46021;55.882;37.654;2023-04-20T00:10:59;100241.13;;;6.09;38.79
50672;BME280;46021;55.882;37.654;2023-04-20T00:13:26;100254.06;;;6.10;38.20
50672;BME280;46021;55.882;37.654;2023-04-20T00:15:53;100254.09;;;6.07;38.36
50672;BME280;46021;55.882;37.654;2023-04-20T00:18:20;100255.84;;;6.02;38.55
50672;BME280;46021;55.882;37.654;2023-04-20T00:20:49;100258.47;;;5.97;38.87
50672;BME280;46021;55.882;37.654;2023-04-20T00:23:16;100248.97;;;5.92;38.75
50672;BME280;46021;55.882;37.654;2023-04-20T00:25:43;100252.41;;;5.89;38.34
50672;BME280;46021;55.882;37.654;2023-04-20T00:28:10;100248.97;;;5.85;39.36
50672;BME280;46021;55.882;37.654;2023-04-20T00:30:40;100243.81;;;5.79;39.21
50672;BME280;46021;55.882;37.654;2023-04-20T00:33:07;100243.84;;;5.73;40.03
50672;BME280;46021;55.882;37.654;2023-04-20T00:35:34;100250.72;;;5.73;39.65
50672;BME280;46021;55.882;37.654;2023-04-20T00:38:02;100249.91;;;5.69;39.76
50672;BME280;46021;55.882;37.654;2023-04-20T00:40:29;100245.59;;;5.63;39.08
50672;BME280;46021;55.882;37.654;2023-04-20T00:42:57;100237.84;;;5.53;39.09
50672;BME280;46021;55.882;37.654;2023-04-20T00:45:24;100241.31;;;5.55;40.04
50672;BME280;46021;55.882;37.654;2023-04-20T00:47:51;100240.44;;;5.51;39.04
50672;BME280;46021;55.882;37.654;2023-04-20T00:50:19;100245.63;;;5.46;40.31
50672;BME280;46021;55.882;37.654;2023-04-20T00:52:47;100242.19;;;5.44;39.81
50672;BME280;46021;55.882;37.654;2023-04-20T00:55:17;100231.00;;;5.41;39.65
50672;BME280;46021;55.882;37.654;2023-04-20T00:57:44;100238.75;;;5.41;40.19
50672;BME280;46021;55.882;37.654;2023-04-20T01:00:12;100226.66;;;5.38;40.47
50672;BME280;46021;55.882;37.654;2023-04-20T01:02:39;100225.81;;;5.38;41.15
50672;BME280;46021;55.882;37.654;2023-04-20T01:05:07;100214.63;;;5.37;40.42
50672;BME280;46021;55.882;37.654;2023-04-20T01:07:35;100212.88;;;5.36;41.19
50672;BME280;46021;55.882;37.654;2023-04-20T01:10:03;100214.63;;;5.34;40.28
50672;BME280;46021;55.882;37.654;2023-04-20T01:12:32;100215.50;;;5.30;40.77
50672;BME280;46021;55.882;37.654;2023-04-20T01:15:01;100209.47;;;5.28;40.38
50672;BME280;46021;55.882;37.654;2023-04-20T01:17:30;100207.75;;;5.24;41.58
50672;BME280;46021;55.882;37.654;2023-04-20T01:19:58;100218.09;;;5.24;41.88
50672;BME280;46021;55.882;37.654;2023-04-20T01:22:29;100211.22;;;5.18;41.70
50672;BME280;46021;55.882;37.654;2023-04-20T01:24:56;100216.38;;;5.17;42.21
50672;BME280;46021;55.882;37.654;2023-04-20T01:27:25;100214.66;;;5.13;42.23
50672;BME280;46021;55.882;37.654;2023-04-20T01:29:52;100207.75;;;5.12;42.26
50672;BME280;46021;55.882;37.654;2023-04-20T01:32:19;100206.91;;;5.10;41.36
50672;BME280;46021;55.882;37.654;2023-04-20T01:34:47;100198.28;;;5.06;41.58
50672;BME280;46021;55.882;37.654;2023-04-20T01:37:15;100203.47;;;5.04;42.33
50672;BME280;46021;55.882;37.654;2023-04-20T01:39:43;100204.34;;;5.03;41.84
50672;BME280;46021;55.882;37.654;2023-04-20T01:42:11;100200.88;;;5.00;41.43
50672;BME280;46021;55.882;37.654;2023-04-20T01:44:38;100201.75;;;4.94;42.43
50672;BME280;46021;55.882;37.654;2023-04-20T01:47:05;100201.75;;;4.93;41.47
50672;BME280;46021;55.882;37.654;2023-04-20T01:49:32;100198.31;;;4.91;42.56
50672;BME280;46021;55.882;37.654;2023-04-20T01:51:59;100193.13;;;4.89;41.36
50672;BME280;46021;55.882;37.654;2023-04-20T01:54:27;100200.03;;;4.87;41.54
50672;BME280;46021;55.882;37.654;2023-04-20T01:56:55;100203.47;;;4.83;42.60
50672;BME280;46021;55.882;37.654;2023-04-20T01:59:22;100196.59;;;4.80;43.35
50672;BME280;46021;55.882;37.654;2023-04-20T02:01:50;100197.47;;;4.75;42.69
50672;BME280;46021;55.882;37.654;2023-04-20T02:04:17;100200.88;;;4.71;41.86
50672;BME280;46021;55.882;37.654;2023-04-20T02:06:44;100195.72;;;4.67;42.51
50672;BME280;46021;55.882;37.654;2023-04-20T02:09:11;100195.72;;;4.64;41.89
50672;BME280;46021;55.882;37.654;2023-04-20T02:11:38;100193.16;;;4.61;42.41
50672;BME280;46021;55.882;37.654;2023-04-20T02:14:09;100199.16;;;4.57;42.70
50672;BME280;46021;55.882;37.654;2023-04-20T02:16:36;100196.59;;;4.54;43.29
50672;BME280;46021;55.882;37.654;2023-04-20T02:19:04;100190.53;;;4.55;42.85
50672;BME280;46021;55.882;37.654;2023-04-20T02:21:31;100187.97;;;4.54;43.54
50672;BME280;46021;55.882;37.654;2023-04-20T02:23:58;100191.41;;;4.53;43.86
50672;BME280;46021;55.882;37.654;2023-04-20T02:26:26;100195.72;;;4.52;43.98
50672;BME280;46021;55.882;37.654;2023-04-20T02:28:53;100190.53;;;4.54;44.29
50672;BME280;46021;55.882;37.654;2023-04-20T02:31:21;100193.97;;;4.57;44.62
50672;BME280;46021;55.882;37.654;2023-04-20T02:33:49;100194.00;;;4.66;44.77
50672;BME280;46021;55.882;37.654;2023-04-20T02:36:18;100190.56;;;4.77;43.72
50672;BME280;46021;55.882;37.654;2023-04-20T02:38:45;100188.84;;;4.85;43.97
50672;BME280;46021;55.882;37.654;2023-04-20T02:41:12;100194.00;;;4.94;43.63
50672;BME280;46021;55.882;37.654;2023-04-20T02:43:39;100194.00;;;4.96;44.36
50672;BME280;46021;55.882;37.654;2023-04-20T02:46:06;100192.28;;;4.98;44.46
50672;BME280;46021;55.882;37.654;2023-04-20T02:48:35;100186.25;;;5.03;44.67
50672;BME280;46021;55.882;37.654;2023-04-20T02:51:03;100175.91;;;5.00;45.39
50672;BME280;46021;55.882;37.654;2023-04-20T02:53:34;100182.78;;;5.14;44.76
50672;BME280;46021;55.882;37.654;2023-04-20T02:56:20;100181.91;;;5.21;44.76
50672;BME280;46021;55.882;37.654;2023-04-20T02:58:53;100181.91;;;5.30;44.15
50672;BME280;46021;55.882;37.654;2023-04-20T03:01:23;100186.16;;;5.45;45.35
50672;BME280;46021;55.882;37.654;2023-04-20T03:04:00;100186.97;;;5.61;44.91
50672;BME280;46021;55.882;37.654;2023-04-20T03:06:29;100185.16;;;5.81;45.32
50672;BME280;46021;55.882;37.654;2023-04-20T03:08:57;100188.50;;;6.11;45.28
50672;BME280;46021;55.882;37.654;2023-04-20T03:11:53;100185.63;;;6.56;45.21
50672;BME280;46021;55.882;37.654;2023-04-20T03:14:41;100179.25;;;6.98;44.59
50672;BME280;46021;55.882;37.654;2023-04-20T03:17:08;100177.09;;;7.40;44.38
50672;BME280;46021;55.882;37.654;2023-04-20T03:19:37;100174.88;;;7.83;43.63
50672;BME280;46021;55.882;37.654;2023-04-20T03:22:04;100174.38;;;8.19;43.13
50672;BME280;46021;55.882;37.654;2023-04-20T03:24:33;100171.31;;;8.53;42.20
50672;BME280;46021;55.882;37.654;2023-04-20T03:27:06;100168.97;;;8.89;41.94
50672;BME280;46021;55.882;37.654;2023-04-20T03:29:42;100165.75;;;9.26;41.76
50672;BME280;46021;55.882;37.654;2023-04-20T03:32:09;100159.84;;;9.60;40.86
50672;BME280;46021;55.882;37.654;2023-04-20T03:34:38;100176.50;;;9.95;40.87
50672;BME280;46021;55.882;37.654;2023-04-20T03:37:05;100156.63;;;10.30;39.65
50672;BME280;46021;55.882;37.654;2023-04-20T03:39:32;100162.78;;;10.65;39.45
50672;BME280;46021;55.882;37.654;2023-04-20T03:41:59;100151.50;;;10.99;38.90
50672;BME280;46021;55.882;37.654;2023-04-20T03:44:26;100154.19;;;11.28;38.10
50672;BME280;46021;55.882;37.654;2023-04-20T03:46:54;100148.91;;;11.63;37.83
50672;BME280;46021;55.882;37.654;2023-04-20T03:49:23;100162.63;;;12.01;37.12
50672;BME280;46021;55.882;37.654;2023-04-20T03:51:52;100156.19;;;12.39;36.67
50672;BME280;46021;55.882;37.654;2023-04-20T03:54:19;100165.84;;;12.37;35.72
50672;BME280;46021;55.882;37.654;2023-04-20T03:56:46;100166.06;;;12.58;35.94
50672;BME280;46021;55.882;37.654;2023-04-20T03:59:15;100162.00;;;13.02;35.53
50672;BME280;46021;55.882;37.654;2023-04-20T04:01:45;100156.88;;;13.50;35.11
50672;BME280;46021;55.882;37.654;2023-04-20T04:04:12;100157.94;;;13.91;34.55
50672;BME280;46021;55.882;37.654;2023-04-20T04:06:39;100150.44;;;14.28;34.18
50672;BME280;46021;55.882;37.654;2023-04-20T04:09:08;100145.41;;;14.43;32.81
50672;BME280;46021;55.882;37.654;2023-04-20T04:11:35;100157.25;;;14.54;33.15
50672;BME280;46021;55.882;37.654;2023-04-20T04:14:02;100154.66;;;14.74;32.69
50672;BME280;46021;55.882;37.654;2023-04-20T04:16:31;100149.63;;;14.70;32.41
50672;BME280;46021;55.882;37.654;2023-04-20T04:18:58;100150.47;;;14.70;32.12
50672;BME280;46021;55.882;37.654;2023-04-20T04:21:25;100150.75;;;14.85;32.29
50672;BME280;46021;55.882;37.654;2023-04-20T04:23:59;100158.34;;;14.70;31.66
50672;BME280;46021;55.882;37.654;2023-04-20T04:26:47;100148.28;;;15.02;32.36
50672;BME280;46021;55.882;37.654;2023-04-20T04:29:15;100139.00;;;15.53;32.26
50672;BME280;46021;55.882;37.654;2023-04-20T04:31:43;100141.03;;;16.24;31.93
50672;BME280;46021;55.882;37.654;2023-04-20T04:34:15;100136.28;;;16.86;30.96
50672;BME280;46021;55.882;37.654;2023-04-20T04:36:47;100131.25;;;16.63;29.80
50672;BME280;46021;55.882;37.654;2023-04-20T04:39:19;100134.13;;;16.58;30.46
50672;BME280;46021;55.882;37.654;2023-04-20T04:41:55;100129.22;;;16.87;30.19
50672;BME280;46021;55.882;37.654;2023-04-20T04:44:36;100124.31;;;16.62;30.11
50672;BME280;46021;55.882;37.654;2023-04-20T04:47:06;100129.22;;;16.87;30.24
50672;BME280;46021;55.882;37.654;2023-04-20T04:49:34;100119.72;;;17.18;29.75
50672;BME280;46021;55.882;37.654;2023-04-20T04:52:02;100116.00;;;17.71;29.77
50672;BME280;46021;55.882;37.654;2023-04-20T04:54:29;100118.22;;;17.47;29.26
50672;BME280;46021;55.882;37.654;2023-04-20T04:56:57;100119.25;;;17.76;28.78
50672;BME280;46021;55.882;37.654;2023-04-20T04:59:25;100115.44;;;18.29;28.59
50672;BME280;46021;55.882;37.654;2023-04-20T05:01:52;100107.97;;;18.52;28.11
50672;BME280;46021;55.882;37.654;2023-04-20T05:04:19;100107.66;;;19.03;28.08
50672;BME280;46021;55.882;37.654;2023-04-20T05:06:46;100105.09;;;18.87;27.40
50672;BME280;46021;55.882;37.654;2023-04-20T05:09:13;100106.91;;;18.70;27.56
50672;BME280;46021;55.882;37.654;2023-04-20T05:11:40;100100.19;;;18.95;27.38
50672;BME280;46021;55.882;37.654;2023-04-20T05:14:09;100095.31;;;19.18;27.01
50672;BME280;46021;55.882;37.654;2023-04-20T05:16:36;100092.31;;;19.38;26.37
50672;BME280;46021;55.882;37.654;2023-04-20T05:19:03;100103.63;;;19.40;26.57
50672;BME280;46021;55.882;37.654;2023-04-20T05:21:30;100102.00;;;19.09;26.94
50672;BME280;46021;55.882;37.654;2023-04-20T05:23:57;100094.91;;;19.53;26.15
50672;BME280;46021;55.882;37.654;2023-04-20T05:26:24;100098.31;;;19.83;26.70
50672;BME280;46021;55.882;37.654;2023-04-20T05:28:52;100095.75;;;20.23;25.50
50672;BME280;46021;55.882;37.654;2023-04-20T05:31:20;100094.81;;;20.37;26.32
50672;BME280;46021;55.882;37.654;2023-04-20T05:33:47;100086.03;;;20.77;25.03
50672;BME280;46021;55.882;37.654;2023-04-20T05:36:14;100084.66;;;21.35;25.64
50672;BME280;46021;55.882;37.654;2023-04-20T05:38:41;100093.03;;;21.55;24.48
50672;BME280;46021;55.882;37.654;2023-04-20T05:41:09;100094.84;;;22.04;24.35
50672;BME280;46021;55.882;37.654;2023-04-20T05:43:36;100093.78;;;22.31;24.37
50672;BME280;46021;55.882;37.654;2023-04-20T05:46:03;100088.16;;;22.82;23.98
50672;BME280;46021;55.882;37.654;2023-04-20T05:48:32;100090.03;;;23.15;23.63
50672;BME280;46021;55.882;37.654;2023-04-20T05:50:59;100092.09;;;23.57;23.49
50672;BME280;46021;55.882;37.654;2023-04-20T05:53:26;100085.69;;;23.48;22.76
50672;BME280;46021;55.882;37.654;2023-04-20T05:55:54;100084.50;;;22.12;23.22
50672;BME280;46021;55.882;37.654;2023-04-20T05:58:21;100083.69;;;19.78;24.76
50672;BME280;46021;55.882;37.654;2023-04-20T06:00:48;100088.31;;;17.96;25.82
50672;BME280;46021;55.882;37.654;2023-04-20T06:03:15;100083.50;;;16.88;27.07
50672;BME280;46021;55.882;37.654;2023-04-20T06:05:43;100082.63;;;15.98;28.12
50672;BME280;46021;55.882;37.654;2023-04-20T06:08:10;100080.06;;;15.40;28.09
50672;BME280;46021;55.882;37.654;2023-04-20T06:10:38;100082.25;;;14.91;29.21
50672;BME280;46021;55.882;37.654;2023-04-20T06:13:05;100087.50;;;14.70;29.06
50672;BME280;46021;55.882;37.654;2023-04-20T06:15:32;100088.06;;;14.34;29.60
50672;BME280;46021;55.882;37.654;2023-04-20T06:17:59;100095.78;;;14.17;30.31
50672;BME280;46021;55.882;37.654;2023-04-20T06:20:26;100092.03;;;14.00;29.84
50672;BME280;46021;55.882;37.654;2023-04-20T06:22:55;100091.50;;;13.92;30.55
50672;BME280;46021;55.882;37.654;2023-04-20T06:25:22;100089.53;;;13.75;30.41
50672;BME280;46021;55.882;37.654;2023-04-20T06:27:50;100091.31;;;13.51;31.91
50672;BME280;46021;55.882;37.654;2023-04-20T06:30:17;100092.03;;;13.33;32.06
50672;BME280;46021;55.882;37.654;2023-04-20T06:32:44;100084.94;;;13.10;32.39
50672;BME280;46021;55.882;37.654;2023-04-20T06:35:11;100079.84;;;13.06;32.21
50672;BME280;46021;55.882;37.654;2023-04-20T06:37:39;100077.03;;;13.11;31.90
50672;BME280;46021;55.882;37.654;2023-04-20T06:40:08;100078.53;;;13.18;32.05
50672;BME280;46021;55.882;37.654;2023-04-20T06:42:35;100079.00;;;13.30;31.86
50672;BME280;46021;55.882;37.654;2023-04-20T06:45:03;100082.91;;;13.43;31.88
50672;BME280;46021;55.882;37.654;2023-04-20T06:47:30;100079.16;;;13.50;32.19
50672;BME280;46021;55.882;37.654;2023-04-20T06:49:58;100077.31;;;13.52;31.66
50672;BME280;46021;55.882;37.654;2023-04-20T06:52:26;100066.44;;;13.39;32.28
50672;BME280;46021;55.882;37.654;2023-04-20T06:54:56;100070.03;;;13.37;32.20
50672;BME280;46021;55.882;37.654;2023-04-20T06:57:25;100072.47;;;13.41;32.00
50672;BME280;46021;55.882;37.654;2023-04-20T06:59:52;100067.63;;;13.31;32.69
50672;BME280;46021;55.882;37.654;2023-04-20T07:02:20;100061.09;;;13.42;32.59
50672;BME280;46021;55.882;37.654;2023-04-20T07:04:47;100057.16;;;13.54;32.41
50672;BME280;46021;55.882;37.654;2023-04-20T07:07:14;100052.00;;;13.75;32.57
50672;BME280;46021;55.882;37.654;2023-04-20T07:09:41;100064.88;;;13.81;32.67
50672;BME280;46021;55.882;37.654;2023-04-20T07:12:08;100052.09;;;13.95;31.94
50672;BME280;46021;55.882;37.654;2023-04-20T07:14:37;100053.59;;;14.01;32.24
50672;BME280;46021;55.882;37.654;2023-04-20T07:17:04;100050.91;;;14.02;32.07
50672;BME280;46021;55.882;37.654;2023-04-20T07:19:32;100045.06;;;13.96;31.81
50672;BME280;46021;55.882;37.654;2023-04-20T07:21:59;100048.84;;;13.89;31.88
50672;BME280;46021;55.882;37.654;2023-04-20T07:24:26;100045.00;;;13.97;31.71
50672;BME280;46021;55.882;37.654;2023-04-20T07:26:54;100049.69;;;14.11;32.12
50672;BME280;46021;55.882;37.654;2023-04-20T07:29:21;100028.34;;;14.20;31.36
50672;BME280;46021;55.882;37.654;2023-04-20T07:31:50;100033.38;;;14.25;31.41
50672;BME280;46021;55.882;37.654;2023-04-20T07:34:17;100029.97;;;14.23;31.37
50672;BME280;46021;55.882;37.654;2023-04-20T07:36:44;100037.06;;;14.21;30.62
50672;BME280;46021;55.882;37.654;2023-04-20T07:39:11;100035.94;;;14.27;30.64
50672;BME280;46021;55.882;37.654;2023-04-20T07:41:40;100031.00;;;14.41;30.47
50672;BME280;46021;55.882;37.654;2023-04-20T07:44:07;100030.25;;;14.59;30.80
50672;BME280;46021;55.882;37.654;2023-04-20T07:46:35;100022.94;;;14.87;30.22
50672;BME280;46021;55.882;37.654;2023-04-20T07:49:04;100017.72;;;15.06;29.71
50672;BME280;46021;55.882;37.654;2023-04-20T07:51:31;100016.88;;;15.05;28.80
50672;BME280;46021;55.882;37.654;2023-04-20T07:53:59;100026.09;;;15.14;28.85
50672;BME280;46021;55.882;37.654;2023-04-20T07:56:26;100015.75;;;15.30;28.95
50672;BME280;46021;55.882;37.654;2023-04-20T07:58:53;100016.13;;;15.41;28.57
50672;BME280;46021;55.882;37.654;2023-04-20T08:01:22;100011.91;;;15.56;28.27
50672;BME280;46021;55.882;37.654;2023-04-20T08:03:50;100010.97;;;15.76;27.40
50672;BME280;46021;55.882;37.654;2023-04-20T08:06:20;100006.88;;;16.07;27.83
50672;BME280;46021;55.882;37.654;2023-04-20T08:08:48;99998.69;;;16.30;27.68
50672;BME280;46021;55.882;37.654;2023-04-20T08:11:15;99996.19;;;16.27;27.17
50672;BME280;46021;55.882;37.654;2023-04-20T08:13:42;100003.94;;;16.13;26.90
50672;BME280;46021;55.882;37.654;2023-04-20T08:16:09;100003.38;;;16.24;27.10
50672;BME280;46021;55.882;37.654;2023-04-20T08:18:36;99994.88;;;16.36;26.94
50672;BME280;46021;55.882;37.654;2023-04-20T08:21:03;100000.72;;;16.76;27.50
50672;BME280;46021;55.882;37.654;2023-04-20T08:23:32;100007.13;;;17.05;26.39
50672;BME280;46021;55.882;37.654;2023-04-20T08:28:31;100006.81;;;17.59;26.03
50672;BME280;46021;55.882;37.654;2023-04-20T08:30:59;100001.56;;;17.75;25.84
50672;BME280;46021;55.882;37.654;2023-04-20T08:33:27;99993.03;;;18.02;26.05
50672;BME280;46021;55.882;37.654;2023-04-20T08:38:33;99989.47;;;18.47;24.43
50672;BME280;46021;55.882;37.654;2023-04-20T08:41:01;99986.75;;;18.63;24.24
50672;BME280;46021;55.882;37.654;2023-04-20T08:43:28;99987.38;;;18.83;23.95
50672;BME280;46021;55.882;37.654;2023-04-20T08:45:57;99975.84;;;18.98;23.47
50672;BME280;46021;55.882;37.654;2023-04-20T08:48:25;99981.22;;;19.53;23.75
50672;BME280;46021;55.882;37.654;2023-04-20T08:50:53;99976.03;;;20.84;22.91
50672;BME280;46021;55.882;37.654;2023-04-20T08:53:20;99973.13;;;22.80;22.73
50672;BME280;46021;55.882;37.654;2023-04-20T08:55:50;99965.00;;;24.77;21.12
50672;BME280;46021;55.882;37.654;2023-04-20T08:58:17;99967.31;;;26.59;19.50
50672;BME280;46021;55.882;37.654;2023-04-20T09:00:48;99959.28;;;26.59;17.60
50672;BME280;46021;55.882;37.654;2023-04-20T09:03:15;99955.50;;;26.71;18.29
50672;BME280;46021;55.882;37.654;2023-04-20T09:05:43;99960.44;;;27.03;18.50
50672;BME280;46021;55.882;37.654;2023-04-20T09:08:11;99953.06;;;26.78;18.07
50672;BME280;46021;55.882;37.654;2023-04-20T09:10:40;99962.66;;;25.94;17.94
50672;BME280;46021;55.882;37.654;2023-04-20T09:13:20;99960.59;;;24.66;18.03
50672;BME280;46021;55.882;37.654;2023-04-20T09:15:47;99956.91;;;24.58;19.44
50672;BME280;46021;55.882;37.654;2023-04-20T09:18:14;99958.38;;;25.12;19.25
50672;BME280;46021;55.882;37.654;2023-04-20T09:20:42;99958.53;;;24.28;18.25
50672;BME280;46021;55.882;37.654;2023-04-20T09:23:12;99972.84;;;23.51;18.90
50672;BME280;46021;55.882;37.654;2023-04-20T09:25:40;99960.94;;;22.19;19.66
50672;BME280;46021;55.882;37.654;2023-04-20T09:28:09;99963.09;;;20.92;20.59
50672;BME280;46021;55.882;37.654;2023-04-20T09:30:38;99959.38;;;20.31;21.13
50672;BME280;46021;55.882;37.654;2023-04-20T09:33:07;99962.94;;;19.77;21.45
50672;BME280;46021;55.882;37.654;2023-04-20T09:35:35;99954.22;;;19.89;21.67
50672;BME280;46021;55.882;37.654;2023-04-20T09:38:05;99953.22;;;20.43;21.31
50672;BME280;46021;55.882;37.654;2023-04-20T09:40:33;99963.06;;;21.55;21.48
50672;BME280;46021;55.882;37.654;2023-04-20T09:43:03;99951.31;;;22.30;20.27
50672;BME280;46021;55.882;37.654;2023-04-20T09:45:37;99957.50;;;22.42;20.01
50672;BME280;46021;55.882;37.654;2023-04-20T09:48:05;99950.13;;;21.98;20.42
50672;BME280;46021;55.882;37.654;2023-04-20T09:50:35;99950.56;;;21.57;20.53
50672;BME280;46021;55.882;37.654;2023-04-20T09:53:04;99948.59;;;20.85;20.58
50672;BME280;46021;55.882;37.654;2023-04-20T09:55:31;99946.91;;;20.84;21.14
50672;BME280;46021;55.882;37.654;2023-04-20T09:58:01;99943.69;;;21.05;20.53
50672;BME280;46021;55.882;37.654;2023-04-20T10:00:28;99935.22;;;20.99;20.38
50672;BME280;46021;55.882;37.654;2023-04-20T10:02:57;99927.28;;;20.48;20.31
50672;BME280;46021;55.882;37.654;2023-04-20T10:05:32;99926.31;;;20.11;20.97
50672;BME280;46021;55.882;37.654;2023-04-20T10:08:00;99926.22;;;19.72;20.90
50672;BME280;46021;55.882;37.654;2023-04-20T10:10:28;99938.06;;;19.25;20.88
50672;BME280;46021;55.882;37.654;2023-04-20T10:12:58;99938.31;;;18.93;21.27
50672;BME280;46021;55.882;37.654;2023-04-20T10:15:35;99924.50;;;18.59;21.08
50672;BME280;46021;55.882;37.654;2023-04-20T10:18:18;99931.66;;;18.43;21.51
50672;BME280;46021;55.882;37.654;2023-04-20T10:20:45;99923.53;;;18.17;22.21
50672;BME280;46021;55.882;37.654;2023-04-20T10:23:13;99928.72;;;18.19;22.62
50672;BME280;46021;55.882;37.654;2023-04-20T10:25:41;99920.44;;;18.25;22.34
50672;BME280;46021;55.882;37.654;2023-04-20T10:28:10;99908.81;;;18.13;22.49
50672;BME280;46021;55.882;37.654;2023-04-20T10:30:48;99925.41;;;18.15;22.44
50672;BME280;46021;55.882;37.654;2023-04-20T10:33:18;99925.81;;;17.93;22.79
50672;BME280;46021;55.882;37.654;2023-04-20T10:35:49;99914.22;;;17.96;22.40
50672;BME280;46021;55.882;37.654;2023-04-20T10:38:29;99917.75;;;18.10;22.21
50672;BME280;46021;55.882;37.654;2023-04-20T10:41:04;99915.47;;;17.74;22.05
50672;BME280;46021;55.882;37.654;2023-04-20T10:43:32;99912.63;;;17.93;22.49
50672;BME280;46021;55.882;37.654;2023-04-20T10:45:59;99903.47;;;17.84;22.57
50672;BME280;46021;55.882;37.654;2023-04-20T10:48:28;99906.66;;;17.59;22.97
50672;BME280;46021;55.882;37.654;2023-04-20T10:50:55;99917.75;;;17.34;23.72
50672;BME280;46021;55.882;37.654;2023-04-20T10:53:22;99914.59;;;17.11;24.25
50672;BME280;46021;55.882;37.654;2023-04-20T10:55:57;99930.03;;;16.86;25.63
50672;BME280;46021;55.882;37.654;2023-04-20T10:58:24;99923.41;;;16.61;25.98
50672;BME280;46021;55.882;37.654;2023-04-20T11:00:59;99919.69;;;16.65;26.12
50672;BME280;46021;55.882;37.654;2023-04-20T11:03:30;99929.88;;;16.89;25.40
50672;BME280;46021;55.882;37.654;2023-04-20T11:05:58;99923.00;;;17.02;25.93
50672;BME280;46021;55.882;37.654;2023-04-20T11:08:35;99919.09;;;17.09;26.11
50672;BME280;46021;55.882;37.654;2023-04-20T11:11:03;99911.59;;;17.49;25.49
50672;BME280;46021;55.882;37.654;2023-04-20T11:13:32;99895.88;;;17.94;24.97
50672;BME280;46021;55.882;37.654;2023-04-20T11:16:07;99899.25;;;18.69;24.80
50672;BME280;46021;55.882;37.654;2023-04-20T11:18:47;99900.03;;;19.95;24.54
50672;BME280;46021;55.882;37.654;2023-04-20T11:21:14;99890.75;;;20.53;22.77
50672;BME280;46021;55.882;37.654;2023-04-20T11:23:42;99891.47;;;21.18;22.70
50672;BME280;46021;55.882;37.654;2023-04-20T11:26:09;99883.34;;;21.80;21.61
50672;BME280;46021;55.882;37.654;2023-04-20T11:28:36;99883.28;;;22.51;21.26
50672;BME280;46021;55.882;37.654;2023-04-20T11:31:04;99884.75;;;23.33;20.76
50672;BME280;46021;55.882;37.654;2023-04-20T11:33:31;99869.28;;;23.59;20.10
50672;BME280;46021;55.882;37.654;2023-04-20T11:36:00;99870.84;;;24.25;19.89
50672;BME280;46021;55.882;37.654;2023-04-20T11:38:28;99857.75;;;24.33;19.16
50672;BME280;46021;55.882;37.654;2023-04-20T11:40:56;99872.41;;;23.64;19.33
50672;BME280;46021;55.882;37.654;2023-04-20T11:43:29;99867.81;;;23.34;19.59
50672;BME280;46021;55.882;37.654;2023-04-20T11:45:57;99851.75;;;23.57;19.38
50672;BME280;46021;55.882;37.654;2023-04-20T11:48:24;99862.59;;;23.97;19.47
50672;BME280;46021;55.882;37.654;2023-04-20T11:50:52;99857.75;;;23.91;18.73
50672;BME280;46021;55.882;37.654;2023-04-20T11:53:20;99832.69;;;23.40;18.95
50672;BME280;46021;55.882;37.654;2023-04-20T11:55:47;99848.81;;;23.06;19.39
50672;BME280;46021;55.882;37.654;2023-04-20T11:58:14;99839.50;;;23.12;19.28
50672;BME280;46021;55.882;37.654;2023-04-20T12:00:41;99847.09;;;22.94;19.31
50672;BME280;46021;55.882;37.654;2023-04-20T12:03:08;99842.00;;;23.13;19.39
50672;BME280;46021;55.882;37.654;2023-04-20T12:05:35;99843.56;;;23.48;18.99
50672;BME280;46021;55.882;37.654;2023-04-20T12:08:03;99829.56;;;23.03;19.14
50672;BME280;46021;55.882;37.654;2023-04-20T12:10:32;99829.81;;;23.00;19.10
50672;BME280;46021;55.882;37.654;2023-04-20T12:12:59;99841.00;;;23.26;19.00
50672;BME280;46021;55.882;37.654;2023-04-20T12:15:26;99832.28;;;23.56;19.03
50672;BME280;46021;55.882;37.654;2023-04-20T12:17:53;99835.97;;;23.44;18.71
50672;BME280;46021;55.882;37.654;2023-04-20T12:20:20;99820.56;;;24.01;18.85
50672;BME280;46021;55.882;37.654;2023-04-20T12:22:47;99821.69;;;24.60;18.71
50672;BME280;46021;55.882;37.654;2023-04-20T12:25:15;99820.75;;;24.49;18.28
50672;BME280;46021;55.882;37.654;2023-04-20T12:27:43;99807.97;;;23.28;18.43
50672;BME280;46021;55.882;37.654;2023-04-20T12:30:11;99807.66;;;22.55;19.05
50672;BME280;46021;55.882;37.654;2023-04-20T12:32:39;99804.16;;;21.52;19.19
50672;BME280;46021;55.882;37.654;2023-04-20T12:35:06;99802.06;;;20.96;20.29
50672;BME280;46021;55.882;37.654;2023-04-20T12:37:34;99797.78;;;20.82;19.76
50672;BME280;46021;55.882;37.654;2023-04-20T12:40:01;99779.34;;;20.80;20.50
50672;BME280;46021;55.882;37.654;2023-04-20T12:42:31;99783.63;;;20.94;21.04
50672;BME280;46021;55.882;37.654;2023-04-20T12:44:59;99783.59;;;21.42;20.01
50672;BME280;46021;55.882;37.654;2023-04-20T12:47:26;99777.38;;;20.95;20.29
50672;BME280;46021;55.882;37.654;2023-04-20T12:49:54;99779.81;;;20.98;20.10
50672;BME280;46021;55.882;37.654;2023-04-20T12:52:21;99767.19;;;20.78;20.07
50672;BME280;46021;55.882;37.654;2023-04-20T12:54:48;99770.34;;;20.20;20.80
50672;BME280;46021;55.882;37.654;2023-04-20T12:57:15;99775.50;;;19.32;20.86